Time;durP1;ratioP1;P1;durP2;ratioP2;P2;SDS_P1;SDS_P2;PMS_P1;PMS_P2;Temp;Humidity;BMP_temperature;BMP_pressure;BME280_temperature;BME280_humidity;BME280_pressure;Samples;Min_cycle;Max_cycle;Signal;HPM_P1;HPM_P2
2023/11/10 06:01:24;;;;;;;0.70;0.70;;;;;;;;;;5533304;23;20496;-77
2023/11/10 06:03:50;;;;;;;1.50;0.70;;;;;;;;;;4957629;28;20527;-74
2023/11/10 06:06:16;;;;;;;1.20;0.80;;;;;;;;;;4952611;28;20500;-74
2023/11/10 06:08:42;;;;;;;0.80;0.70;;;;;;;;;;4955569;28;20436;-77
2023/11/10 06:11:09;;;;;;;0.87;0.77;;;;;;;;;;4960483;28;20459;-73
2023/11/10 06:13:35;;;;;;;0.73;0.60;;;;;;;;;;4959779;28;20690;-75
2023/11/10 06:16:01;;;;;;;1.27;0.70;;;;;;;;;;4956613;28;20464;-74
2023/11/10 06:18:27;;;;;;;1.03;0.80;;;;;;;;;;4956278;28;20432;-75
2023/11/10 06:20:54;;;;;;;0.90;0.90;;;;;;;;;;4958432;28;20570;-74
2023/11/10 06:23:20;;;;;;;1.50;0.87;;;;;;;;;;4958701;28;20440;-75
2023/11/10 06:25:46;;;;;;;0.70;0.60;;;;;;;;;;4953527;28;20436;-75
2023/11/10 06:28:12;;;;;;;0.90;0.80;;;;;;;;;;4957453;28;21236;-74
2023/11/10 06:30:38;;;;;;;0.80;0.70;;;;;;;;;;4952678;28;20551;-74
2023/11/10 06:33:04;;;;;;;0.90;0.90;;;;;;;;;;4959069;28;20432;-76
2023/11/10 06:35:31;;;;;;;0.93;0.93;;;;;;;;;;4956693;28;20436;-75
2023/11/10 06:37:57;;;;;;;0.97;0.97;;;;;;;;;;4957482;28;20611;-76
2023/11/10 06:40:23;;;;;;;0.80;0.70;;;;;;;;;;4953081;28;20499;-74
2023/11/10 06:42:49;;;;;;;0.87;0.77;;;;;;;;;;4958838;28;20455;-74
2023/11/10 06:45:15;;;;;;;1.13;1.03;;;;;;;;;;4959445;28;20440;-77
2023/11/10 06:47:40;;;;;;;1.60;0.80;;;;;;;;;;4955768;28;20432;-75
2023/11/10 06:50:07;;;;;;;1.70;1.07;;;;;;;;;;4953283;28;20451;-75
2023/11/10 06:52:33;;;;;;;2.33;1.00;;;;;;;;;;4957133;28;20458;-74
2023/11/10 06:54:59;;;;;;;0.83;0.80;;;;;;;;;;4956012;28;20447;-75
2023/11/10 06:57:26;;;;;;;1.10;1.00;;;;;;;;;;4955033;28;20444;-74
2023/11/10 06:59:52;;;;;;;1.90;0.80;;;;;;;;;;4956497;28;20436;-75
2023/11/10 07:02:19;;;;;;;1.90;1.10;;;;;;;;;;4957275;28;20549;-75
2023/11/10 07:04:45;;;;;;;5.53;2.20;;;;;;;;;;4955321;28;20534;-75
2023/11/10 07:07:12;;;;;;;1.03;0.93;;;;;;;;;;4955622;28;20438;-76
2023/11/10 07:09:38;;;;;;;1.97;0.90;;;;;;;;;;4953737;28;20528;-74
2023/11/10 07:12:06;;;;;;;0.90;0.80;;;;;;;;;;4952468;28;20503;-74
2023/11/10 07:14:32;;;;;;;1.33;0.93;;;;;;;;;;4949994;28;20524;-75
2023/11/10 07:16:58;;;;;;;0.90;0.80;;;;;;;;;;4955723;28;21012;-75
2023/11/10 07:19:25;;;;;;;1.47;1.37;;;;;;;;;;4957871;28;20488;-75
2023/11/10 07:21:51;;;;;;;1.90;1.20;;;;;;;;;;4953307;28;20463;-74
2023/11/10 07:24:17;;;;;;;1.23;1.13;;;;;;;;;;4961401;28;20432;-75
2023/11/10 07:26:43;;;;;;;1.97;1.07;;;;;;;;;;4957226;28;20463;-75
2023/11/10 07:29:09;;;;;;;0.90;0.80;;;;;;;;;;4951437;28;20954;-74
2023/11/10 07:31:35;;;;;;;0.93;0.90;;;;;;;;;;4960333;28;20465;-77
2023/11/10 07:34:03;;;;;;;1.63;1.03;;;;;;;;;;4966527;28;20803;-75
2023/11/10 07:36:29;;;;;;;3.57;1.10;;;;;;;;;;4977310;28;20423;-77
2023/11/10 07:38:55;;;;;;;2.00;1.37;;;;;;;;;;4974634;28;20465;-77
2023/11/10 07:41:21;;;;;;;1.43;1.00;;;;;;;;;;4957820;29;20988;-76
2023/11/10 07:43:47;;;;;;;2.13;1.00;;;;;;;;;;4963995;28;20423;-74
2023/11/10 07:46:13;;;;;;;1.60;1.33;;;;;;;;;;4979098;28;20444;-75
2023/11/10 07:48:40;;;;;;;2.10;1.40;;;;;;;;;;4980539;28;20481;-75
2023/11/10 07:54:12;;;;;;;1.30;1.20;;;;;;;;;;4978974;28;20395;-76
2023/11/10 07:56:39;;;;;;;1.83;1.20;;;;;;;;;;4973822;28;20412;-76
2023/11/10 07:59:06;;;;;;;1.23;0.93;;;;;;;;;;4985690;28;20423;-76
2023/11/10 08:01:32;;;;;;;1.27;0.83;;;;;;;;;;4986974;28;20857;-76
2023/11/10 08:03:58;;;;;;;1.07;0.97;;;;;;;;;;4977592;28;20408;-76
2023/11/10 08:06:24;;;;;;;2.90;1.20;;;;;;;;;;4975999;28;20440;-76
2023/11/10 08:08:51;;;;;;;2.93;1.20;;;;;;;;;;4977390;28;20883;-76
2023/11/10 08:11:17;;;;;;;0.70;0.70;;;;;;;;;;4977777;28;20432;-76
2023/11/10 08:13:43;;;;;;;2.30;1.10;;;;;;;;;;4976924;28;20414;-76
2023/11/10 08:16:10;;;;;;;1.27;1.23;;;;;;;;;;4976846;28;20420;-76
2023/11/10 08:18:37;;;;;;;4.30;1.30;;;;;;;;;;4976886;28;20427;-75
2023/11/10 08:21:04;;;;;;;1.47;0.80;;;;;;;;;;4976619;28;20471;-76
2023/11/10 08:23:29;;;;;;;1.53;1.00;;;;;;;;;;4976448;28;20423;-76
2023/11/10 08:25:55;;;;;;;5.67;1.13;;;;;;;;;;4975347;28;20419;-76
2023/11/10 08:28:21;;;;;;;1.10;1.00;;;;;;;;;;4976366;28;20442;-76
2023/11/10 08:30:48;;;;;;;1.37;0.93;;;;;;;;;;4974999;28;20439;-76
2023/11/10 08:33:14;;;;;;;1.37;1.00;;;;;;;;;;4974900;28;20567;-76
2023/11/10 08:35:41;;;;;;;2.03;0.97;;;;;;;;;;4976612;28;20772;-75
2023/11/10 08:38:09;;;;;;;1.00;0.80;;;;;;;;;;4976329;28;20416;-75
2023/11/10 08:40:35;;;;;;;0.90;0.80;;;;;;;;;;4976291;28;20950;-75
2023/11/10 08:43:01;;;;;;;1.70;1.60;;;;;;;;;;4976119;28;20446;-76
2023/11/10 08:45:27;;;;;;;1.63;1.43;;;;;;;;;;4977022;28;20450;-76
2023/11/10 08:47:53;;;;;;;0.90;0.80;;;;;;;;;;4976518;28;20404;-76
2023/11/10 08:50:19;;;;;;;1.43;0.97;;;;;;;;;;4974997;28;20420;-76
2023/11/10 08:52:47;;;;;;;6.37;1.00;;;;;;;;;;4974618;28;20415;-76
2023/11/10 08:55:17;;;;;;;0.80;0.70;;;;;;;;;;4974650;28;20434;-76
2023/11/10 08:57:43;;;;;;;1.00;0.90;;;;;;;;;;4975713;28;20436;-76
2023/11/10 09:00:11;;;;;;;1.03;0.93;;;;;;;;;;4975647;28;20412;-76
2023/11/10 09:05:40;;;;;;;1.20;1.10;;;;;;;;;;4974755;28;20480;-76
2023/11/10 09:08:06;;;;;;;5.00;1.17;;;;;;;;;;4975667;28;20420;-76
2023/11/10 09:10:32;;;;;;;2.27;1.20;;;;;;;;;;4973480;28;20463;-76
2023/11/10 09:12:58;;;;;;;1.67;1.60;;;;;;;;;;4975340;28;20466;-76
2023/11/10 09:15:24;;;;;;;1.20;0.90;;;;;;;;;;4976127;28;20503;-76
2023/11/10 09:17:50;;;;;;;1.00;0.90;;;;;;;;;;4975563;28;20412;-76
2023/11/10 09:20:16;;;;;;;1.20;0.87;;;;;;;;;;4975509;28;20404;-76
2023/11/10 09:22:42;;;;;;;4.33;0.90;;;;;;;;;;4975485;28;20550;-76
2023/11/10 09:25:13;;;;;;;0.83;0.80;;;;;;;;;;4975583;28;20896;-76
2023/11/10 09:27:39;;;;;;;0.70;0.70;;;;;;;;;;4975521;28;20408;-76
2023/11/10 09:30:07;;;;;;;3.47;1.97;;;;;;;;;;4975604;28;20459;-76
2023/11/10 09:32:33;;;;;;;3.70;0.83;;;;;;;;;;4973821;28;20454;-76
2023/11/10 09:34:59;;;;;;;2.00;0.90;;;;;;;;;;4975731;28;20421;-76
2023/11/10 09:37:25;;;;;;;0.93;0.83;;;;;;;;;;4975701;28;20466;-76
2023/11/10 09:39:51;;;;;;;1.07;0.90;;;;;;;;;;4976183;28;20416;-76
2023/11/10 09:42:18;;;;;;;1.00;0.90;;;;;;;;;;4973842;28;20467;-76
2023/11/10 09:44:52;;;;;;;1.07;0.97;;;;;;;;;;4975026;28;20789;-76
2023/11/10 09:47:20;;;;;;;0.87;0.80;;;;;;;;;;4975691;28;20412;-76
2023/11/10 09:49:46;;;;;;;4.63;0.97;;;;;;;;;;4975126;28;20451;-75
2023/11/10 09:52:13;;;;;;;4.20;1.20;;;;;;;;;;4973405;28;20444;-75
2023/11/10 09:54:41;;;;;;;1.10;1.00;;;;;;;;;;4973829;28;20420;-75
2023/11/10 09:57:07;;;;;;;0.90;0.90;;;;;;;;;;4974924;28;20499;-75
2023/11/10 09:59:33;;;;;;;1.10;1.00;;;;;;;;;;4974956;28;20782;-75
2023/11/10 10:02:00;;;;;;;2.10;1.03;;;;;;;;;;4974434;28;20483;-75
2023/11/10 10:04:28;;;;;;;1.43;1.13;;;;;;;;;;4974708;28;20416;-75
2023/11/10 10:06:56;;;;;;;1.80;1.03;;;;;;;;;;4974568;28;20412;-75
2023/11/10 10:09:22;;;;;;;1.53;0.97;;;;;;;;;;4973448;28;20868;-75
2023/11/10 10:11:48;;;;;;;1.87;0.90;;;;;;;;;;4974547;28;20436;-75
2023/11/10 10:14:14;;;;;;;1.17;1.07;;;;;;;;;;4974226;28;20423;-75
2023/11/10 10:16:56;;;;;;;1.33;1.23;;;;;;;;;;4974700;28;20408;-75
2023/11/10 10:19:23;;;;;;;1.73;1.03;;;;;;;;;;4975009;28;20507;-75
2023/11/10 10:21:49;;;;;;;2.20;0.87;;;;;;;;;;4982498;28;20582;-74
2023/11/10 10:24:14;;;;;;;1.07;1.00;;;;;;;;;;4981240;28;20436;-75
2023/11/10 10:26:40;;;;;;;2.30;1.30;;;;;;;;;;4981737;28;20898;-75
2023/11/10 10:29:07;;;;;;;2.10;1.10;;;;;;;;;;4980980;28;20466;-76
2023/11/10 10:31:33;;;;;;;2.00;0.97;;;;;;;;;;4974506;28;20434;-75
2023/11/10 10:34:04;;;;;;;1.10;1.00;;;;;;;;;;4973855;28;20415;-75
2023/11/10 10:36:38;;;;;;;0.90;0.83;;;;;;;;;;4972716;28;20407;-75
2023/11/10 10:39:10;;;;;;;6.00;1.10;;;;;;;;;;4974619;28;20439;-74
2023/11/10 10:41:38;;;;;;;1.57;1.03;;;;;;;;;;4974289;28;21042;-75
2023/11/10 10:44:04;;;;;;;1.13;1.07;;;;;;;;;;4972846;28;20748;-75
2023/11/10 10:46:34;;;;;;;1.10;1.00;;;;;;;;;;4973946;28;20419;-75
2023/11/10 10:49:00;;;;;;;1.63;1.10;;;;;;;;;;4973741;28;20416;-75
2023/11/10 10:51:28;;;;;;;3.90;1.07;;;;;;;;;;4973804;28;20856;-75
2023/11/10 10:53:54;;;;;;;2.40;1.07;;;;;;;;;;4973562;28;20416;-75
2023/11/10 10:56:20;;;;;;;1.20;1.10;;;;;;;;;;4973643;28;20423;-75
2023/11/10 10:58:46;;;;;;;1.20;0.97;;;;;;;;;;4974179;28;20407;-76
2023/11/10 11:01:16;;;;;;;2.80;1.20;;;;;;;;;;4973693;28;20557;-75
2023/11/10 11:04:01;;;;;;;1.20;1.10;;;;;;;;;;4973500;28;20416;-75
2023/11/10 11:06:40;;;;;;;3.73;1.47;;;;;;;;;;4973698;28;20523;-75
2023/11/10 11:09:25;;;;;;;1.40;1.20;;;;;;;;;;4972210;28;20442;-76
2023/11/10 11:11:59;;;;;;;1.07;0.97;;;;;;;;;;4973886;28;20460;-76
2023/11/10 11:14:45;;;;;;;2.50;1.37;;;;;;;;;;4973053;28;20777;-76
2023/11/10 11:17:29;;;;;;;1.27;1.00;;;;;;;;;;4973614;28;20423;-76
2023/11/10 11:19:55;;;;;;;1.20;1.10;;;;;;;;;;4973233;28;20455;-76
2023/11/10 11:22:21;;;;;;;2.40;1.13;;;;;;;;;;4972750;28;20499;-75
2023/11/10 11:24:47;;;;;;;7.33;1.10;;;;;;;;;;4973478;28;20443;-76
2023/11/10 11:27:24;;;;;;;0.80;0.80;;;;;;;;;;4973226;28;20852;-76
2023/11/10 11:29:54;;;;;;;2.10;1.23;;;;;;;;;;4973277;28;20430;-76
2023/11/10 11:32:25;;;;;;;1.90;1.00;;;;;;;;;;4972528;28;20428;-76
2023/11/10 11:34:56;;;;;;;2.50;1.30;;;;;;;;;;4972914;28;20774;-76
2023/11/10 11:37:29;;;;;;;1.00;0.90;;;;;;;;;;4972956;28;20515;-76
2023/11/10 11:39:56;;;;;;;1.27;0.80;;;;;;;;;;4973110;28;20414;-76
2023/11/10 11:42:34;;;;;;;1.33;0.90;;;;;;;;;;4972905;28;20570;-76
2023/11/10 11:45:01;;;;;;;1.93;1.00;;;;;;;;;;4972080;28;20412;-76
2023/11/10 11:47:31;;;;;;;2.83;0.97;;;;;;;;;;4973272;28;20443;-76
2023/11/10 11:49:58;;;;;;;1.40;1.03;;;;;;;;;;4971810;28;20471;-75
2023/11/10 11:52:24;;;;;;;2.90;1.20;;;;;;;;;;4973059;28;20471;-76
2023/11/10 11:54:53;;;;;;;1.80;1.40;;;;;;;;;;4973213;28;20451;-76
2023/11/10 11:57:19;;;;;;;1.13;1.00;;;;;;;;;;4972808;28;20500;-75
2023/11/10 11:59:45;;;;;;;0.97;0.87;;;;;;;;;;4972914;28;20773;-75
2023/11/10 12:02:13;;;;;;;1.10;1.03;;;;;;;;;;4972027;28;20534;-75
2023/11/10 12:04:40;;;;;;;2.20;0.90;;;;;;;;;;4971204;28;20424;-75
2023/11/10 12:07:06;;;;;;;1.00;0.80;;;;;;;;;;4972995;28;20447;-75
2023/11/10 12:09:32;;;;;;;1.07;0.97;;;;;;;;;;4972572;28;20419;-75
2023/11/10 12:11:58;;;;;;;2.50;2.10;;;;;;;;;;4972355;28;20443;-75
2023/11/10 12:14:24;;;;;;;3.20;1.80;;;;;;;;;;4971985;28;20570;-73
2023/11/10 12:16:51;;;;;;;2.17;1.20;;;;;;;;;;4972849;28;20440;-73
2023/11/10 12:19:17;;;;;;;3.03;1.20;;;;;;;;;;4971908;28;20854;-73
2023/11/10 12:21:43;;;;;;;1.70;1.10;;;;;;;;;;4971526;28;21011;-74
2023/11/10 12:24:10;;;;;;;2.37;1.20;;;;;;;;;;4971388;28;20558;-74
2023/11/10 12:26:37;;;;;;;1.20;1.13;;;;;;;;;;4971579;28;20415;-74
2023/11/10 12:29:23;;;;;;;2.07;1.17;;;;;;;;;;4974072;28;20444;-73
2023/11/10 12:31:50;;;;;;;2.37;1.20;;;;;;;;;;4973361;28;20563;-73
2023/11/10 12:34:16;;;;;;;3.23;1.17;;;;;;;;;;4972935;28;20423;-74
2023/11/10 12:36:42;;;;;;;1.37;1.33;;;;;;;;;;4972762;28;20791;-73
2023/11/10 12:39:14;;;;;;;1.80;1.03;;;;;;;;;;4973082;28;20846;-74
2023/11/10 12:41:40;;;;;;;1.50;0.83;;;;;;;;;;4971493;28;20864;-74
2023/11/10 12:44:09;;;;;;;2.67;1.67;;;;;;;;;;4973011;28;20411;-75
2023/11/10 12:46:35;;;;;;;2.10;1.10;;;;;;;;;;4976221;28;20979;-74
2023/11/10 12:49:03;;;;;;;3.73;1.03;;;;;;;;;;4976299;28;20439;-73
2023/11/10 12:51:29;;;;;;;1.87;1.30;;;;;;;;;;4974968;28;20450;-73
2023/11/10 12:54:02;;;;;;;3.97;1.17;;;;;;;;;;4975191;28;20904;-73
2023/11/10 12:56:30;;;;;;;3.70;1.33;;;;;;;;;;4975340;28;20664;-75
2023/11/10 12:58:56;;;;;;;1.63;1.10;;;;;;;;;;4975846;28;20416;-73
2023/11/10 13:04:25;;;;;;;1.97;1.40;;;;;;;;;;4967904;28;20394;-74
2023/11/10 13:06:52;;;;;;;2.30;1.67;;;;;;;;;;4977307;28;20415;-74
2023/11/10 13:09:19;;;;;;;2.90;1.43;;;;;;;;;;4965286;28;20416;-75
2023/11/10 13:11:45;;;;;;;1.93;1.53;;;;;;;;;;4956107;28;20523;-74
2023/11/10 13:14:11;;;;;;;3.23;1.70;;;;;;;;;;4965835;28;20950;-73
2023/11/10 13:16:37;;;;;;;2.93;1.70;;;;;;;;;;4966387;28;20427;-74
2023/11/10 13:19:05;;;;;;;1.70;1.40;;;;;;;;;;4969882;28;20434;-74
2023/11/10 13:21:32;;;;;;;1.20;1.10;;;;;;;;;;4965237;28;20465;-74
2023/11/10 13:23:58;;;;;;;1.00;0.97;;;;;;;;;;4968250;28;20428;-74
2023/11/10 13:26:24;;;;;;;1.17;1.10;;;;;;;;;;4975692;28;20423;-75
2023/11/10 13:28:51;;;;;;;1.97;1.13;;;;;;;;;;4973796;28;20412;-75
2023/11/10 13:31:18;;;;;;;1.97;1.03;;;;;;;;;;4963871;28;20448;-77
2023/11/10 13:33:45;;;;;;;0.97;0.87;;;;;;;;;;4975197;28;20431;-74
2023/11/10 13:36:11;;;;;;;3.90;1.00;;;;;;;;;;4969172;28;20426;-76
2023/11/10 13:38:37;;;;;;;1.00;0.70;;;;;;;;;;4967761;28;21101;-75
2023/11/10 13:41:05;;;;;;;1.43;1.07;;;;;;;;;;4975288;28;20614;-75
2023/11/10 13:43:31;;;;;;;1.67;1.60;;;;;;;;;;4974530;28;20468;-74
2023/11/10 13:45:57;;;;;;;2.03;1.00;;;;;;;;;;4975406;28;20423;-75
2023/11/10 13:48:23;;;;;;;3.33;1.37;;;;;;;;;;4980387;28;20419;-75
2023/11/10 13:50:50;;;;;;;2.60;0.93;;;;;;;;;;4960534;28;20781;-76
2023/11/10 13:53:16;;;;;;;1.00;1.00;;;;;;;;;;4968052;28;20428;-75
2023/11/10 13:55:43;;;;;;;0.90;0.90;;;;;;;;;;4976799;28;21002;-72
2023/11/10 13:58:09;;;;;;;1.33;1.17;;;;;;;;;;4970526;28;20480;-72
2023/11/10 14:00:35;;;;;;;4.97;1.30;;;;;;;;;;4964012;28;20925;-72
2023/11/10 14:03:01;;;;;;;3.07;1.27;;;;;;;;;;4969976;28;20463;-74
2023/11/10 14:05:27;;;;;;;2.90;1.40;;;;;;;;;;4972735;28;20511;-72
2023/11/10 14:07:53;;;;;;;2.47;1.73;;;;;;;;;;4960430;28;20472;-73
2023/11/10 14:10:20;;;;;;;4.30;1.90;;;;;;;;;;4974192;28;20452;-73
2023/11/10 14:12:48;;;;;;;2.60;1.30;;;;;;;;;;4968270;28;20473;-74
2023/11/10 14:15:15;;;;;;;1.00;0.90;;;;;;;;;;4962701;28;20436;-74
2023/11/10 14:17:41;;;;;;;2.83;1.40;;;;;;;;;;4974029;28;20478;-72
2023/11/10 14:20:11;;;;;;;3.07;1.57;;;;;;;;;;4972799;28;20441;-73
2023/11/10 14:22:39;;;;;;;4.23;1.77;;;;;;;;;;4983654;28;20524;-72
2023/11/10 14:25:09;;;;;;;4.63;1.30;;;;;;;;;;4966190;28;20487;-72
2023/11/10 14:27:35;;;;;;;3.00;1.40;;;;;;;;;;4955101;28;20439;-73
2023/11/10 14:30:03;;;;;;;2.50;1.97;;;;;;;;;;4955076;29;20766;-72
2023/11/10 14:32:29;;;;;;;5.13;2.10;;;;;;;;;;4954404;29;20440;-73
2023/11/10 14:34:57;;;;;;;4.20;3.07;;;;;;;;;;4955286;28;20436;-72
2023/11/10 14:37:24;;;;;;;4.03;1.50;;;;;;;;;;4972695;28;20922;-72
2023/11/10 14:39:50;;;;;;;2.97;1.53;;;;;;;;;;4973978;28;20415;-73
2023/11/10 14:42:17;;;;;;;3.03;1.27;;;;;;;;;;4973558;28;20464;-73
2023/11/10 14:44:43;;;;;;;3.30;2.10;;;;;;;;;;4974289;28;20458;-72
2023/11/10 14:47:18;;;;;;;2.60;1.63;;;;;;;;;;4973979;28;20474;-72
2023/11/10 14:49:46;;;;;;;3.77;2.03;;;;;;;;;;4969664;28;20426;-73
2023/11/10 14:52:16;;;;;;;6.77;2.30;;;;;;;;;;4972316;28;20955;-71
2023/11/10 14:54:44;;;;;;;2.40;1.70;;;;;;;;;;4970887;28;20494;-72
2023/11/10 14:57:10;;;;;;;5.40;1.80;;;;;;;;;;4954170;29;20477;-72
2023/11/10 14:59:36;;;;;;;3.97;2.07;;;;;;;;;;4952676;29;20455;-72
2023/11/10 15:02:03;;;;;;;4.97;2.77;;;;;;;;;;4953398;29;20515;-73
2023/11/10 15:04:29;;;;;;;2.90;1.80;;;;;;;;;;4954055;28;20421;-71
2023/11/10 15:06:55;;;;;;;5.63;2.27;;;;;;;;;;4953630;28;20915;-71
2023/11/10 15:09:21;;;;;;;6.00;1.80;;;;;;;;;;4954923;28;20417;-72
2023/11/10 15:11:48;;;;;;;2.00;1.50;;;;;;;;;;4965988;28;20478;-73
2023/11/10 15:14:15;;;;;;;4.57;1.70;;;;;;;;;;4992960;28;20411;-72
2023/11/10 15:16:45;;;;;;;4.80;2.47;;;;;;;;;;4977467;28;20420;-73
2023/11/10 15:19:15;;;;;;;5.07;2.03;;;;;;;;;;4973368;28;20482;-73
2023/11/10 15:21:41;;;;;;;9.17;4.30;;;;;;;;;;4973242;28;20550;-73
2023/11/10 15:24:08;;;;;;;2.13;1.90;;;;;;;;;;4973076;28;20422;-73
2023/11/10 15:26:37;;;;;;;7.20;2.10;;;;;;;;;;4973453;28;20743;-74
2023/11/10 15:29:03;;;;;;;2.60;1.83;;;;;;;;;;4956466;28;20424;-74
2023/11/10 15:31:31;;;;;;;4.00;1.83;;;;;;;;;;4953708;29;20519;-73
2023/11/10 15:33:58;;;;;;;3.13;1.43;;;;;;;;;;4960924;28;20934;-74
2023/11/10 15:36:29;;;;;;;3.77;1.77;;;;;;;;;;4973178;28;20421;-73
2023/11/10 15:38:55;;;;;;;5.90;2.10;;;;;;;;;;4973052;28;20884;-73
2023/11/10 15:41:21;;;;;;;3.90;1.70;;;;;;;;;;4972819;28;20482;-72
2023/11/10 15:43:47;;;;;;;5.57;2.33;;;;;;;;;;4972849;28;20415;-73
2023/11/10 15:46:13;;;;;;;6.33;1.93;;;;;;;;;;4972533;28;20419;-73
2023/11/10 15:48:39;;;;;;;6.90;2.30;;;;;;;;;;4970998;28;20425;-73
2023/11/10 15:51:06;;;;;;;5.27;2.57;;;;;;;;;;4953373;29;20947;-73
2023/11/10 15:53:32;;;;;;;6.80;2.73;;;;;;;;;;4956169;28;20811;-73
2023/11/10 15:55:58;;;;;;;3.50;2.77;;;;;;;;;;4972898;28;20439;-73
2023/11/10 15:58:24;;;;;;;5.80;2.40;;;;;;;;;;4973026;28;20425;-73
2023/11/10 16:00:50;;;;;;;9.40;2.40;;;;;;;;;;4972687;28;20961;-73
2023/11/10 16:03:16;;;;;;;8.30;2.17;;;;;;;;;;4971875;28;20907;-73
2023/11/10 16:05:42;;;;;;;8.30;3.50;;;;;;;;;;4971394;28;20412;-72
2023/11/10 16:08:08;;;;;;;7.17;4.30;;;;;;;;;;4972784;28;20435;-75
2023/11/10 16:10:35;;;;;;;11.40;3.67;;;;;;;;;;4972844;28;20478;-75
2023/11/10 16:13:02;;;;;;;12.33;2.30;;;;;;;;;;4973174;28;20416;-74
2023/11/10 16:15:28;;;;;;;3.90;2.50;;;;;;;;;;4989844;28;20768;-75
2023/11/10 16:17:54;;;;;;;23.90;2.97;;;;;;;;;;4991627;28;20421;-76
2023/11/10 16:20:21;;;;;;;4.37;2.13;;;;;;;;;;4980968;28;20439;-77
2023/11/10 16:22:47;;;;;;;5.50;2.17;;;;;;;;;;4955223;29;20503;-76
2023/11/10 16:25:14;;;;;;;3.80;1.87;;;;;;;;;;4985899;28;20430;-76
2023/11/10 16:27:41;;;;;;;11.67;4.33;;;;;;;;;;4995873;28;20429;-76
2023/11/10 16:30:07;;;;;;;15.17;3.57;;;;;;;;;;4981092;28;20765;-75
2023/11/10 16:32:34;;;;;;;5.73;3.70;;;;;;;;;;4975883;28;20435;-74
2023/11/10 16:35:01;;;;;;;7.30;3.60;;;;;;;;;;4976393;28;20427;-75
2023/11/10 16:37:27;;;;;;;14.17;4.90;;;;;;;;;;4974843;28;20435;-74
2023/11/10 16:39:53;;;;;;;12.90;3.57;;;;;;;;;;4967159;28;20425;-74
2023/11/10 16:42:19;;;;;;;7.20;3.27;;;;;;;;;;4956726;29;20504;-75
2023/11/10 16:44:45;;;;;;;4.47;3.00;;;;;;;;;;4960569;28;20724;-74
2023/11/10 16:47:12;;;;;;;8.63;3.83;;;;;;;;;;4969098;28;20422;-75
2023/11/10 16:49:38;;;;;;;7.70;3.53;;;;;;;;;;4970661;28;20833;-76
2023/11/10 16:52:06;;;;;;;7.33;3.00;;;;;;;;;;4975773;28;20435;-76
2023/11/10 16:54:33;;;;;;;8.60;3.27;;;;;;;;;;4968648;28;20450;-74
2023/11/10 16:56:59;;;;;;;11.17;4.63;;;;;;;;;;4967379;28;20423;-73
2023/11/10 16:59:25;;;;;;;2.67;2.03;;;;;;;;;;4961217;28;20476;-72
2023/11/10 17:01:51;;;;;;;5.70;2.53;;;;;;;;;;4963539;28;20477;-73
2023/11/10 17:04:18;;;;;;;9.10;2.50;;;;;;;;;;4967432;28;20415;-71
2023/11/10 17:06:45;;;;;;;7.97;2.93;;;;;;;;;;4973865;28;20454;-79
2023/11/10 17:09:11;;;;;;;7.13;2.30;;;;;;;;;;4971690;28;20419;-76
2023/11/10 17:11:38;;;;;;;8.30;1.80;;;;;;;;;;4960197;28;20947;-77
2023/11/10 17:14:04;;;;;;;13.23;4.30;;;;;;;;;;4961303;28;20822;-76
2023/11/10 17:16:31;;;;;;;11.53;3.43;;;;;;;;;;4992427;28;20509;-78
2023/11/10 17:18:57;;;;;;;8.67;3.50;;;;;;;;;;4974245;28;20469;-76
2023/11/10 17:21:23;;;;;;;11.30;3.70;;;;;;;;;;4993797;28;20474;-77
2023/11/10 17:23:49;;;;;;;8.03;3.10;;;;;;;;;;4956899;28;20423;-77
2023/11/10 17:26:15;;;;;;;9.90;3.73;;;;;;;;;;4956003;29;20408;-76
2023/11/10 17:28:41;;;;;;;8.50;2.20;;;;;;;;;;4961220;28;20480;-77
2023/11/10 17:31:07;;;;;;;6.80;2.20;;;;;;;;;;4991848;28;20799;-77
2023/11/10 17:33:38;;;;;;;5.80;2.37;;;;;;;;;;4978640;28;20760;-76
2023/11/10 17:36:05;;;;;;;6.80;2.80;;;;;;;;;;4961004;28;20531;-76
2023/11/10 17:38:31;;;;;;;6.43;1.90;;;;;;;;;;4969530;28;20462;-74
2023/11/10 17:41:01;;;;;;;5.37;2.67;;;;;;;;;;4974563;28;20479;-75
2023/11/10 17:43:27;;;;;;;3.40;1.70;;;;;;;;;;4965269;28;20415;-74
2023/11/10 17:45:53;;;;;;;8.33;1.87;;;;;;;;;;4975009;28;20400;-74
2023/11/10 17:48:20;;;;;;;5.80;2.13;;;;;;;;;;4975232;28;20547;-74
2023/11/10 17:50:46;;;;;;;15.73;2.53;;;;;;;;;;4975664;28;20424;-72
2023/11/10 17:53:12;;;;;;;6.47;2.37;;;;;;;;;;4972880;28;20494;-72
2023/11/10 17:55:40;;;;;;;6.93;3.10;;;;;;;;;;4961089;28;20916;-72
2023/11/10 17:58:07;;;;;;;6.83;2.70;;;;;;;;;;4975897;28;20638;-71
2023/11/10 18:00:33;;;;;;;9.70;3.13;;;;;;;;;;4961295;29;20573;-72
2023/11/10 18:03:03;;;;;;;5.27;2.60;;;;;;;;;;4961392;29;20547;-73
2023/11/10 18:05:29;;;;;;;13.10;2.40;;;;;;;;;;4961579;29;20428;-73
2023/11/10 18:07:54;;;;;;;5.03;2.47;;;;;;;;;;4960491;29;20829;-73
2023/11/10 18:10:21;;;;;;;7.47;2.70;;;;;;;;;;4955281;29;20428;-74
2023/11/10 18:12:48;;;;;;;5.03;2.67;;;;;;;;;;4979687;23;20420;-72
2023/11/10 18:15:16;;;;;;;8.60;2.77;;;;;;;;;;4971950;28;20458;-74
2023/11/10 18:17:42;;;;;;;8.00;2.90;;;;;;;;;;4971027;28;20435;-75
2023/11/10 18:20:09;;;;;;;14.23;2.73;;;;;;;;;;4973071;28;20785;-71
2023/11/10 18:22:35;;;;;;;6.37;2.60;;;;;;;;;;4973934;28;20517;-70
2023/11/10 18:25:02;;;;;;;5.57;2.40;;;;;;;;;;4966417;28;20431;-71
2023/11/10 18:27:28;;;;;;;8.77;3.47;;;;;;;;;;4971635;28;20407;-71
2023/11/10 18:29:54;;;;;;;14.53;4.70;;;;;;;;;;4970311;28;20455;-71
2023/11/10 18:32:20;;;;;;;18.43;5.87;;;;;;;;;;4973909;28;21232;-72
2023/11/10 18:34:46;;;;;;;13.87;4.93;;;;;;;;;;4971152;28;20448;-71
2023/11/10 18:37:13;;;;;;;4.63;2.57;;;;;;;;;;4974276;28;20426;-71
2023/11/10 18:39:40;;;;;;;8.30;3.43;;;;;;;;;;4972728;28;20915;-71
2023/11/10 18:42:06;;;;;;;11.70;3.23;;;;;;;;;;4969150;28;21151;-71
2023/11/10 18:44:32;;;;;;;9.73;3.33;;;;;;;;;;4974029;28;20424;-71
2023/11/10 18:46:58;;;;;;;10.17;3.00;;;;;;;;;;4973927;28;20423;-70
2023/11/10 18:49:24;;;;;;;17.03;3.17;;;;;;;;;;4974072;28;20436;-70
2023/11/10 18:51:49;;;;;;;12.90;3.10;;;;;;;;;;4973882;28;20416;-70
2023/11/10 18:54:16;;;;;;;9.73;2.90;;;;;;;;;;4973659;28;20454;-71
2023/11/10 18:56:42;;;;;;;13.53;4.07;;;;;;;;;;4974220;28;20427;-71
2023/11/10 18:59:08;;;;;;;9.27;3.77;;;;;;;;;;4973847;28;20821;-71
2023/11/10 19:01:36;;;;;;;12.50;5.30;;;;;;;;;;4972243;28;20462;-71
2023/11/10 19:04:02;;;;;;;13.33;5.30;;;;;;;;;;4981157;28;20439;-70
2023/11/10 19:06:28;;;;;;;8.80;3.93;;;;;;;;;;4972653;28;20558;-71
2023/11/10 19:08:54;;;;;;;14.40;2.90;;;;;;;;;;4973486;28;20412;-70
2023/11/10 19:11:20;;;;;;;4.73;2.63;;;;;;;;;;4963016;28;20924;-70
2023/11/10 19:13:46;;;;;;;8.53;4.03;;;;;;;;;;4973183;28;20455;-71
2023/11/10 19:16:12;;;;;;;9.10;2.70;;;;;;;;;;4973303;28;20419;-71
2023/11/10 19:18:38;;;;;;;8.40;3.70;;;;;;;;;;4973585;28;20815;-70
2023/11/10 19:21:04;;;;;;;21.53;5.70;;;;;;;;;;4973090;28;20775;-71
2023/11/10 19:23:30;;;;;;;13.10;4.50;;;;;;;;;;4972799;28;20957;-69
2023/11/10 19:25:56;;;;;;;12.33;3.77;;;;;;;;;;4974061;28;20492;-72
2023/11/10 19:28:23;;;;;;;9.53;3.83;;;;;;;;;;4954126;28;20421;-72
2023/11/10 19:30:49;;;;;;;10.73;4.10;;;;;;;;;;4963816;28;20445;-72
2023/11/10 19:33:16;;;;;;;14.07;3.67;;;;;;;;;;4971345;28;20440;-70
2023/11/10 19:35:42;;;;;;;10.20;3.70;;;;;;;;;;4964134;28;20444;-70
2023/11/10 19:38:08;;;;;;;8.97;3.13;;;;;;;;;;4989103;28;20463;-69
2023/11/10 19:40:34;;;;;;;8.87;2.67;;;;;;;;;;4973442;28;20419;-69
2023/11/10 19:43:01;;;;;;;7.93;2.20;;;;;;;;;;4979043;28;20479;-69
2023/11/10 19:45:27;;;;;;;9.33;2.67;;;;;;;;;;4965078;28;20454;-68
2023/11/10 19:47:53;;;;;;;6.47;2.33;;;;;;;;;;4982642;28;20419;-68
2023/11/10 19:50:19;;;;;;;8.53;2.67;;;;;;;;;;4959268;28;20829;-69
2023/11/10 19:52:45;;;;;;;10.23;3.40;;;;;;;;;;4972942;28;20403;-69
2023/11/10 19:55:14;;;;;;;5.13;2.33;;;;;;;;;;4979801;28;20913;-69
2023/11/10 19:57:41;;;;;;;7.13;3.50;;;;;;;;;;4971271;28;20459;-69
2023/11/10 20:00:08;;;;;;;6.53;3.03;;;;;;;;;;4979123;28;20883;-73
2023/11/10 20:02:34;;;;;;;10.43;4.20;;;;;;;;;;4979765;28;20501;-72
2023/11/10 20:05:00;;;;;;;13.73;4.17;;;;;;;;;;4977454;28;20475;-71
2023/11/10 20:07:26;;;;;;;17.73;4.20;;;;;;;;;;4953459;28;20419;-70
2023/11/10 20:09:51;;;;;;;16.60;4.10;;;;;;;;;;4968048;28;20830;-71
2023/11/10 20:12:17;;;;;;;12.83;4.90;;;;;;;;;;4968017;28;20427;-71
2023/11/10 20:14:43;;;;;;;5.70;3.03;;;;;;;;;;4965287;28;20456;-70
2023/11/10 20:17:09;;;;;;;8.80;2.37;;;;;;;;;;4953966;28;20791;-70
2023/11/10 20:19:36;;;;;;;7.57;2.50;;;;;;;;;;4972670;28;20487;-68
2023/11/10 20:22:03;;;;;;;7.53;3.33;;;;;;;;;;4972346;28;20521;-70
2023/11/10 20:24:29;;;;;;;8.40;3.00;;;;;;;;;;4970656;28;20429;-69
2023/11/10 20:26:55;;;;;;;11.00;4.47;;;;;;;;;;4965464;28;20507;-71
2023/11/10 20:29:21;;;;;;;13.47;2.97;;;;;;;;;;4964543;28;20432;-70
2023/11/10 20:31:47;;;;;;;8.73;2.50;;;;;;;;;;4969414;28;20843;-69
2023/11/10 20:34:13;;;;;;;5.40;2.43;;;;;;;;;;4972274;28;20531;-70
2023/11/10 20:36:39;;;;;;;9.40;3.30;;;;;;;;;;4972201;28;20439;-71
2023/11/10 20:39:06;;;;;;;5.80;2.40;;;;;;;;;;4972296;28;20419;-70
2023/11/10 20:41:32;;;;;;;7.50;2.33;;;;;;;;;;4975157;28;20475;-71
2023/11/10 20:43:57;;;;;;;5.63;3.10;;;;;;;;;;4972190;28;20857;-71
2023/11/10 20:46:23;;;;;;;8.50;2.27;;;;;;;;;;4967549;28;20503;-71
2023/11/10 20:48:50;;;;;;;12.20;4.37;;;;;;;;;;4972172;28;20424;-70